Terminal Aerodrome Forecast
Issued by NWS

Home | Current Version | Previous Version | Text Only | Print | Product List | Glossary On
Versions: 1 2 3 4 5 6 7 8 9 10 11 12 13 14 15
000
FTUS42 KMLB 190002 CCA
TAFTIX
TAF COR
KTIX 190002Z 1900/1924 02011KT P6SM VCSH FEW030 SCT060
     FM190400 04009KT P6SM FEW050 SCT250
     FM191400 04013G18KT P6SM VCSH SCT020 BKN040
     FM192000 03015G21KT P6SM VCSH SCT040 BKN100
      AMD NOT SKED 1901/1911=

USA.gov is the U.S. government's official web portal to all federal, state and local government web resources and services.